createdAt,value
2023-03-12T00:01:14.866Z,96874.69
2023-03-12T00:03:41.783Z,96882.47
2023-03-12T00:06:10.831Z,96885.28
2023-03-12T00:08:37.739Z,96894.13
2023-03-12T00:11:04.320Z,96886.50
2023-03-12T00:13:30.878Z,96890.44
2023-03-12T00:15:57.550Z,96898.81
2023-03-12T00:18:24.172Z,96899.25
2023-03-12T00:20:50.777Z,96900.91
2023-03-12T00:23:17.352Z,96901.78
2023-03-12T00:25:46.733Z,96898.81
2023-03-12T00:28:13.526Z,96907.22
2023-03-12T00:30:40.102Z,96919.72
2023-03-12T00:33:06.684Z,96922.94
2023-03-12T00:35:33.262Z,96927.28
2023-03-12T00:37:59.846Z,96927.06
2023-03-12T00:40:26.427Z,96933.00
2023-03-12T00:42:53.007Z,96935.03
2023-03-12T00:45:19.592Z,96941.00
2023-03-12T00:47:46.194Z,96938.03
2023-03-12T00:50:15.107Z,96945.94
2023-03-12T00:52:41.724Z,96945.94
2023-03-12T00:55:08.328Z,96948.31
2023-03-12T00:57:36.794Z,96953.16
2023-03-12T01:00:03.458Z,96953.72
2023-03-12T01:02:30.082Z,96966.16
2023-03-12T01:04:56.663Z,96962.22
2023-03-12T01:07:23.234Z,96961.38
2023-03-12T01:09:49.826Z,96970.78
2023-03-12T01:12:16.376Z,96965.47
2023-03-12T01:14:43.028Z,96973.34
2023-03-12T01:17:09.623Z,96973.34
2023-03-12T01:19:36.279Z,96981.66
2023-03-12T01:22:02.847Z,96980.06
2023-03-12T01:24:29.446Z,96980.47
2023-03-12T01:26:56.015Z,96970.78
2023-03-12T01:29:22.699Z,96967.94
2023-03-12T01:31:49.365Z,96971.66
2023-03-12T01:34:15.995Z,96975.94
2023-03-12T01:36:42.584Z,96973.50
2023-03-12T01:39:09.168Z,96981.97
2023-03-12T01:41:35.731Z,96982.94
2023-03-12T01:44:02.324Z,96981.19
2023-03-12T01:46:29.061Z,96972.75
2023-03-12T01:48:55.665Z,96979.59
2023-03-12T01:51:22.241Z,96981.72
2023-03-12T01:53:48.832Z,96990.00
2023-03-12T01:56:15.421Z,96991.81
2023-03-12T01:58:42.090Z,96991.50
2023-03-12T02:01:08.802Z,96988.56
2023-03-12T02:03:35.688Z,96988.22
2023-03-12T02:06:02.367Z,96996.38
2023-03-12T02:08:28.951Z,96993.44
2023-03-12T02:10:55.579Z,96994.25
2023-03-12T02:13:22.297Z,96998.34
2023-03-12T02:15:48.874Z,96999.94
2023-03-12T02:18:15.449Z,96996.72
2023-03-12T02:20:42.040Z,97001.72
2023-03-12T02:23:08.726Z,96996.84
2023-03-12T02:25:35.298Z,97001.75
2023-03-12T02:28:01.905Z,97006.13
2023-03-12T02:30:28.510Z,97002.50
2023-03-12T02:32:56.175Z,97009.69
2023-03-12T02:35:22.750Z,97002.19
2023-03-12T02:37:49.303Z,97016.22
2023-03-12T02:40:15.914Z,97016.00
2023-03-12T02:42:42.524Z,97018.44
2023-03-12T02:45:09.114Z,97017.78
2023-03-12T02:47:35.839Z,97021.56
2023-03-12T02:50:02.387Z,97019.41
2023-03-12T02:52:29.035Z,97021.34
2023-03-12T02:54:55.625Z,97021.34
2023-03-12T02:57:22.204Z,97030.66
2023-03-12T02:59:48.763Z,97025.94
2023-03-12T03:02:15.364Z,97031.00
2023-03-12T03:04:41.946Z,97033.03
2023-03-12T03:07:08.565Z,97030.09
2023-03-12T03:09:35.185Z,97035.19
2023-03-12T03:12:01.749Z,97034.38
2023-03-12T03:14:28.454Z,97038.81
2023-03-12T03:16:55.048Z,97047.94
2023-03-12T03:19:21.628Z,97051.19
2023-03-12T03:21:55.515Z,97049.16
2023-03-12T03:24:22.240Z,97056.34
2023-03-12T03:26:48.833Z,97052.41
2023-03-12T03:29:15.436Z,97059.25
2023-03-12T03:34:26.281Z,97061.69
2023-03-12T03:36:52.857Z,97066.53
2023-03-12T03:39:19.434Z,97067.59
2023-03-12T03:41:46.000Z,97065.28
2023-03-12T03:44:12.585Z,97068.25
2023-03-12T03:46:39.182Z,97071.66
2023-03-12T03:49:05.774Z,97077.63
2023-03-12T03:51:32.351Z,97085.94
2023-03-12T03:53:58.904Z,97087.09
2023-03-12T03:56:25.553Z,97086.66
2023-03-12T03:58:52.145Z,97087.78
2023-03-12T04:01:18.823Z,97096.44
2023-03-12T04:03:45.485Z,97102.44
2023-03-12T04:06:12.155Z,97095.59
2023-03-12T04:08:38.734Z,97103.59
2023-03-12T04:11:05.366Z,97110.50
2023-03-12T04:13:32.129Z,97119.19
2023-03-12T04:15:58.742Z,97118.84
2023-03-12T04:18:25.463Z,97120.31
2023-03-12T04:20:52.049Z,97122.56
2023-03-12T04:23:18.639Z,97126.81
2023-03-12T04:25:45.434Z,97121.59
2023-03-12T04:28:12.095Z,97122.91
2023-03-12T04:30:38.741Z,97129.41
2023-03-12T04:33:05.366Z,97123.75
2023-03-12T04:35:31.973Z,97127.25
2023-03-12T04:37:58.595Z,97127.25
2023-03-12T04:40:25.199Z,97136.41
2023-03-12T04:42:51.784Z,97131.53
2023-03-12T04:45:18.398Z,97134.81
2023-03-12T04:47:45.007Z,97133.03
2023-03-12T04:50:11.588Z,97133.34
2023-03-12T04:52:38.151Z,97148.09
2023-03-12T04:55:04.764Z,97151.13
2023-03-12T04:57:31.364Z,97161.59
2023-03-12T04:59:57.987Z,97154.19
2023-03-12T05:02:24.607Z,97159.81
2023-03-12T05:04:51.171Z,97157.72
2023-03-12T05:07:17.771Z,97160.53
2023-03-12T05:09:44.358Z,97170.03
2023-03-12T05:12:11.138Z,97166.44
2023-03-12T05:14:37.687Z,97163.50
2023-03-12T05:17:04.268Z,97173.53
2023-03-12T05:19:30.797Z,97175.63
2023-03-12T05:21:57.381Z,97175.72
2023-03-12T05:24:23.995Z,97179.81
2023-03-12T05:26:50.570Z,97184.31
2023-03-12T05:29:17.329Z,97187.03
2023-03-12T05:31:44.007Z,97184.50
2023-03-12T05:34:10.630Z,97190.72
2023-03-12T05:36:37.557Z,97201.91
2023-03-12T05:39:04.129Z,97201.47
2023-03-12T05:41:30.702Z,97215.47
2023-03-12T05:43:57.279Z,97217.59
2023-03-12T05:46:23.888Z,97213.72
2023-03-12T05:48:50.535Z,97223.22
2023-03-12T05:51:17.091Z,97230.59
2023-03-12T05:53:43.665Z,97232.44
2023-03-12T05:56:10.224Z,97237.75
2023-03-12T05:58:36.838Z,97234.44
2023-03-12T06:01:03.425Z,97236.59
2023-03-12T06:03:30.111Z,97237.13
2023-03-12T06:05:56.765Z,97245.75
2023-03-12T06:08:23.471Z,97244.66
2023-03-12T06:10:50.078Z,97251.28
2023-03-12T06:13:16.667Z,97255.81
2023-03-12T06:15:44.258Z,97257.09
2023-03-12T06:18:10.860Z,97267.19
2023-03-12T06:20:37.418Z,97268.09
2023-03-12T06:23:04.059Z,97264.25
2023-03-12T06:25:30.645Z,97266.16
2023-03-12T06:27:57.279Z,97270.44
2023-03-12T06:30:23.871Z,97277.25
2023-03-12T06:32:50.547Z,97279.03
2023-03-12T06:35:17.191Z,97284.44
2023-03-12T06:37:43.778Z,97284.44
2023-03-12T06:40:10.434Z,97286.94
2023-03-12T06:42:36.999Z,97290.66
2023-03-12T06:45:03.571Z,97275.88
2023-03-12T06:47:30.208Z,97280.59
2023-03-12T06:49:57.213Z,97282.13
2023-03-12T06:52:23.851Z,97280.09
2023-03-12T06:54:50.463Z,97284.72
2023-03-12T06:57:17.037Z,97289.72
2023-03-12T06:59:43.626Z,97289.72
2023-03-12T07:02:10.268Z,97291.59
2023-03-12T07:04:36.909Z,97289.72
2023-03-12T07:07:03.530Z,97298.63
2023-03-12T07:09:30.084Z,97306.91
2023-03-12T07:11:56.690Z,97313.09
2023-03-12T07:14:23.273Z,97310.19
2023-03-12T07:16:49.835Z,97318.13
2023-03-12T07:19:16.447Z,97318.22
2023-03-12T07:21:43.001Z,97321.31
2023-03-12T07:24:09.614Z,97330.66
2023-03-12T07:26:36.553Z,97326.66
2023-03-12T07:29:03.119Z,97329.63
2023-03-12T07:31:29.851Z,97324.09
2023-03-12T07:33:56.534Z,97329.19
2023-03-12T07:36:23.816Z,97338.19
2023-03-12T07:38:51.058Z,97344.38
2023-03-12T07:41:17.668Z,97346.38
2023-03-12T07:43:44.551Z,97353.81
2023-03-12T07:46:11.198Z,97353.88
2023-03-12T07:48:37.935Z,97362.78
2023-03-12T07:51:04.540Z,97362.63
2023-03-12T07:53:31.153Z,97365.00
2023-03-12T07:55:57.828Z,97370.84
2023-03-12T07:58:24.526Z,97363.47
2023-03-12T08:00:51.225Z,97359.56
2023-03-12T08:03:26.729Z,97364.78
2023-03-12T08:05:53.529Z,97357.09
2023-03-12T08:08:20.137Z,97354.25
2023-03-12T08:10:46.749Z,97352.06
2023-03-12T08:13:13.343Z,97349.78
2023-03-12T08:15:39.948Z,97341.81
2023-03-12T08:18:06.526Z,97358.94
2023-03-12T08:20:33.107Z,97357.16
2023-03-12T08:22:59.708Z,97356.88
2023-03-12T08:25:26.316Z,97349.84
2023-03-12T08:27:52.887Z,97352.38
2023-03-12T08:30:19.635Z,97345.97
2023-03-12T08:32:46.274Z,97346.63
2023-03-12T08:35:12.900Z,97346.16
2023-03-12T08:37:39.489Z,97353.97
2023-03-12T08:40:06.081Z,97350.34
2023-03-12T08:42:32.636Z,97357.81
2023-03-12T08:44:59.367Z,97348.66
2023-03-12T08:47:25.924Z,97341.47
2023-03-12T08:49:52.561Z,97344.41
2023-03-12T08:52:19.372Z,97343.03
2023-03-12T08:54:48.306Z,97344.81
2023-03-12T08:57:14.896Z,97345.88
2023-03-12T08:59:41.460Z,97340.78
2023-03-12T09:02:08.057Z,97344.91
2023-03-12T09:04:34.648Z,97353.69
2023-03-12T09:07:01.276Z,97347.34
2023-03-12T09:09:27.847Z,97344.03
2023-03-12T09:11:54.470Z,97336.81
2023-03-12T09:17:07.594Z,97338.19
2023-03-12T09:19:34.183Z,97329.94
2023-03-12T09:22:00.735Z,97330.22
2023-03-12T09:24:27.324Z,97333.28
2023-03-12T09:26:54.002Z,97328.44
2023-03-12T09:29:20.607Z,97325.28
2023-03-12T09:31:47.184Z,97336.31
2023-03-12T09:34:13.789Z,97336.59
2023-03-12T09:36:40.387Z,97335.56
2023-03-12T09:39:06.981Z,97332.41
2023-03-12T09:41:33.590Z,97327.06
2023-03-12T09:44:02.277Z,97322.34
2023-03-12T09:46:28.953Z,97327.03
2023-03-12T09:48:55.653Z,97332.53
2023-03-12T09:51:22.274Z,97326.53
2023-03-12T09:53:48.880Z,97329.53
2023-03-12T09:56:15.460Z,97326.78
2023-03-12T09:58:42.039Z,97330.81
2023-03-12T10:01:08.634Z,97328.88
2023-03-12T10:03:35.318Z,97332.84
2023-03-12T10:06:01.956Z,97329.28
2023-03-12T10:08:29.093Z,97332.81
2023-03-12T10:10:56.656Z,97327.38
2023-03-12T10:13:23.307Z,97327.63
2023-03-12T10:15:49.967Z,97321.69
2023-03-12T10:18:16.776Z,97324.22
2023-03-12T10:20:43.573Z,97319.94
2023-03-12T10:23:10.251Z,97313.69
2023-03-12T10:25:36.831Z,97316.44
2023-03-12T10:28:03.414Z,97315.44
2023-03-12T10:30:29.981Z,97317.28
2023-03-12T10:32:56.652Z,97317.38
2023-03-12T10:35:23.298Z,97315.63
2023-03-12T10:37:49.912Z,97320.97
2023-03-12T10:40:16.472Z,97320.13
2023-03-12T10:42:45.408Z,97318.31
2023-03-12T10:45:12.129Z,97315.13
2023-03-12T10:47:38.697Z,97309.63
2023-03-12T10:50:05.294Z,97310.34
2023-03-12T10:52:31.859Z,97308.38
2023-03-12T10:54:58.491Z,97309.28
2023-03-12T10:57:25.065Z,97301.25
2023-03-12T10:59:51.702Z,97304.06
2023-03-12T11:02:18.630Z,97303.19
2023-03-12T11:04:45.218Z,97303.84
2023-03-12T11:07:11.823Z,97305.41
2023-03-12T11:09:38.397Z,97300.53
2023-03-12T11:12:05.247Z,97305.59
2023-03-12T11:14:31.833Z,97304.44
2023-03-12T11:16:58.444Z,97299.78
2023-03-12T11:19:25.198Z,97300.00
2023-03-12T11:21:51.759Z,97295.94
2023-03-12T11:24:18.327Z,97305.56
2023-03-12T11:26:44.915Z,97297.50
2023-03-12T11:29:11.524Z,97289.66
2023-03-12T11:31:38.160Z,97289.25
2023-03-12T11:34:04.734Z,97277.47
2023-03-12T11:36:31.413Z,97278.91
2023-03-12T11:38:58.176Z,97274.78
2023-03-12T11:41:24.821Z,97273.13
2023-03-12T11:43:51.409Z,97276.75
2023-03-12T11:46:18.036Z,97266.03
2023-03-12T11:48:44.780Z,97250.69
2023-03-12T11:51:11.454Z,97257.25
2023-03-12T11:53:38.042Z,97255.84
2023-03-12T11:56:04.614Z,97251.16
2023-03-12T11:58:31.202Z,97255.78
2023-03-12T12:00:57.788Z,97249.88
2023-03-12T12:03:24.450Z,97246.38
2023-03-12T12:05:51.106Z,97233.09
2023-03-12T12:08:17.701Z,97231.16
2023-03-12T12:10:44.309Z,97228.28
2023-03-12T12:13:10.950Z,97227.94
2023-03-12T12:15:37.590Z,97215.94
2023-03-12T12:18:04.187Z,97211.22
2023-03-12T12:20:30.766Z,97213.06
2023-03-12T12:22:57.367Z,97211.69
2023-03-12T12:25:24.069Z,97217.63
2023-03-12T12:27:50.824Z,97213.25
2023-03-12T12:30:17.408Z,97215.28
2023-03-12T12:32:44.103Z,97209.28
2023-03-12T12:35:13.630Z,97222.63
2023-03-12T12:37:40.708Z,97209.59
2023-03-12T12:40:07.291Z,97213.00
2023-03-12T12:42:33.895Z,97211.16
2023-03-12T12:45:00.463Z,97211.88
2023-03-12T12:50:11.109Z,97212.88
2023-03-12T12:52:37.684Z,97217.91
2023-03-12T12:55:04.238Z,97217.63
2023-03-12T12:57:31.039Z,97212.75
2023-03-12T12:59:57.626Z,97211.38
2023-03-12T13:02:24.211Z,97214.66
2023-03-12T13:04:50.794Z,97208.34
2023-03-12T13:07:17.380Z,97207.78
2023-03-12T13:09:43.970Z,97210.78
2023-03-12T13:12:10.538Z,97204.78
2023-03-12T13:14:37.147Z,97209.31
2023-03-12T13:17:04.097Z,97213.31
2023-03-12T13:19:30.742Z,97217.09
2023-03-12T13:21:57.416Z,97218.09
2023-03-12T13:24:24.043Z,97216.44
2023-03-12T13:26:50.622Z,97220.38
2023-03-12T13:29:17.190Z,97213.81
2023-03-12T13:31:43.786Z,97223.25
2023-03-12T13:34:10.360Z,97217.50
2023-03-12T13:36:36.952Z,97228.69
2023-03-12T13:39:03.546Z,97232.38
2023-03-12T13:41:31.823Z,97217.97
2023-03-12T13:43:58.521Z,97220.47
2023-03-12T13:46:25.231Z,97227.84
2023-03-12T13:48:51.858Z,97221.91
2023-03-12T13:51:18.624Z,97232.66
2023-03-12T13:53:45.192Z,97230.31
2023-03-12T13:56:11.805Z,97232.06
2023-03-12T13:58:38.398Z,97223.19
2023-03-12T14:01:04.998Z,97230.97
2023-03-12T14:03:31.580Z,97232.34
2023-03-12T14:05:58.203Z,97223.53
2023-03-12T14:08:25.785Z,97226.97
2023-03-12T14:10:52.429Z,97222.19
2023-03-12T14:13:19.023Z,97217.44
2023-03-12T14:15:45.661Z,97223.88
2023-03-12T14:18:12.350Z,97220.69
2023-03-12T14:20:39.026Z,97223.38
2023-03-12T14:23:05.629Z,97222.66
2023-03-12T14:25:32.304Z,97221.97
2023-03-12T14:27:59.053Z,97229.47
2023-03-12T14:30:25.636Z,97236.59
2023-03-12T14:32:52.296Z,97233.75
2023-03-12T14:35:18.899Z,97230.69
2023-03-12T14:37:45.470Z,97230.69
2023-03-12T14:40:12.140Z,97224.28
2023-03-12T14:42:38.714Z,97222.56
2023-03-12T14:45:05.333Z,97222.56
2023-03-12T14:47:32.166Z,97226.72
2023-03-12T14:49:58.733Z,97227.97
2023-03-12T14:52:25.357Z,97217.09
2023-03-12T14:54:51.912Z,97221.97
2023-03-12T14:57:18.530Z,97216.53
2023-03-12T14:59:45.267Z,97222.78
2023-03-12T15:02:11.958Z,97219.75
2023-03-12T15:04:38.616Z,97218.72
2023-03-12T15:07:05.241Z,97221.16
2023-03-12T15:09:31.831Z,97217.06
2023-03-12T15:11:58.512Z,97216.56
2023-03-12T15:14:25.091Z,97211.25
2023-03-12T15:16:51.660Z,97198.88
2023-03-12T15:19:18.249Z,97197.75
2023-03-12T15:21:44.832Z,97195.16
2023-03-12T15:24:11.483Z,97200.75
2023-03-12T15:26:38.131Z,97198.16
2023-03-12T15:29:04.885Z,97203.94
2023-03-12T15:31:31.705Z,97205.09
2023-03-12T15:33:58.447Z,97217.16
2023-03-12T15:36:25.196Z,97217.28
2023-03-12T15:38:51.813Z,97208.28
2023-03-12T15:41:18.397Z,97196.78
2023-03-12T15:43:45.161Z,97195.81
2023-03-12T15:46:12.176Z,97184.31
2023-03-12T15:48:38.839Z,97192.66
2023-03-12T15:51:05.428Z,97193.25
2023-03-12T15:53:32.014Z,97210.94
2023-03-12T15:55:58.595Z,97210.16
2023-03-12T15:58:25.179Z,97215.94
2023-03-12T16:00:51.849Z,97218.50
2023-03-12T16:03:18.471Z,97219.16
2023-03-12T16:05:45.023Z,97216.56
2023-03-12T16:08:11.610Z,97220.38
2023-03-12T16:10:38.198Z,97223.69
2023-03-12T16:13:04.798Z,97222.19
2023-03-12T16:15:31.407Z,97231.66
2023-03-12T16:17:57.967Z,97234.22
2023-03-12T16:20:24.706Z,97230.03
2023-03-12T16:22:51.441Z,97236.34
2023-03-12T16:25:18.057Z,97236.00
2023-03-12T16:27:44.607Z,97245.31
2023-03-12T16:30:11.194Z,97240.19
2023-03-12T16:32:37.792Z,97247.06
2023-03-12T16:35:04.378Z,97249.47
2023-03-12T16:37:30.976Z,97250.31
2023-03-12T16:39:57.852Z,97245.75
2023-03-12T16:42:24.469Z,97249.66
2023-03-12T16:44:51.049Z,97252.59
2023-03-12T16:47:17.702Z,97251.81
2023-03-12T16:49:44.289Z,97253.16
2023-03-12T16:52:10.898Z,97250.75
2023-03-12T16:54:37.465Z,97254.56
2023-03-12T16:57:04.031Z,97260.09
2023-03-12T16:59:30.648Z,97276.41
2023-03-12T17:01:57.632Z,97273.59
2023-03-12T17:04:24.311Z,97268.91
2023-03-12T17:06:51.033Z,97265.84
2023-03-12T17:09:17.600Z,97271.97
2023-03-12T17:11:44.232Z,97287.22
2023-03-12T17:14:10.824Z,97283.38
2023-03-12T17:16:37.528Z,97286.19
2023-03-12T17:19:04.136Z,97299.63
2023-03-12T17:21:30.718Z,97301.44
2023-03-12T17:23:57.558Z,97304.28
2023-03-12T17:26:24.130Z,97294.31
2023-03-12T17:28:50.682Z,97290.28
2023-03-12T17:31:17.312Z,97296.56
2023-03-12T17:33:43.902Z,97275.66
2023-03-12T17:36:10.509Z,97275.66
2023-03-12T17:38:37.065Z,97287.00
2023-03-12T17:41:04.677Z,97295.16
2023-03-12T17:43:31.664Z,97294.72
2023-03-12T17:45:58.288Z,97298.56
2023-03-12T17:48:24.869Z,97297.81
2023-03-12T17:50:51.652Z,97302.50
2023-03-12T17:53:18.250Z,97311.09
2023-03-12T17:55:44.980Z,97319.97
2023-03-12T17:58:11.565Z,97313.91
2023-03-12T18:00:38.126Z,97312.44
2023-03-12T18:03:04.799Z,97329.97
2023-03-12T18:05:31.386Z,97323.75
2023-03-12T18:07:57.961Z,97316.16
2023-03-12T18:10:24.554Z,97313.47
2023-03-12T18:12:51.143Z,97324.41
2023-03-12T18:15:17.786Z,97333.53
2023-03-12T18:17:44.591Z,97332.34
2023-03-12T18:20:11.170Z,97329.84
2023-03-12T18:22:37.759Z,97331.03
2023-03-12T18:25:04.379Z,97341.31
2023-03-12T18:27:30.960Z,97344.34
2023-03-12T18:29:57.518Z,97338.63
2023-03-12T18:32:24.161Z,97338.88
2023-03-12T18:34:50.736Z,97352.53
2023-03-12T18:37:17.365Z,97355.75
2023-03-12T18:39:44.018Z,97359.53
2023-03-12T18:42:10.591Z,97365.34
2023-03-12T18:44:37.183Z,97352.16
2023-03-12T18:47:03.752Z,97357.94
2023-03-12T18:49:30.335Z,97362.56
2023-03-12T18:51:56.927Z,97357.78
2023-03-12T18:54:24.696Z,97366.72
2023-03-12T18:56:51.530Z,97370.53
2023-03-12T18:59:18.125Z,97371.50
2023-03-12T19:01:44.719Z,97376.91
2023-03-12T19:04:11.456Z,97362.03
2023-03-12T19:06:50.057Z,97365.97
2023-03-12T19:09:17.618Z,97360.56
2023-03-12T19:11:44.610Z,97340.34
2023-03-12T19:14:11.222Z,97345.63
2023-03-12T19:16:38.028Z,97348.69
2023-03-12T19:19:04.704Z,97357.78
2023-03-12T19:21:31.307Z,97359.88
2023-03-12T19:23:57.903Z,97364.78
2023-03-12T19:26:24.484Z,97365.50
2023-03-12T19:28:51.086Z,97368.28
2023-03-12T19:31:17.685Z,97365.25
2023-03-12T19:33:44.308Z,97380.81
2023-03-12T19:36:10.898Z,97390.81
2023-03-12T19:38:37.584Z,97379.16
2023-03-12T19:41:04.181Z,97381.97
2023-03-12T19:43:30.792Z,97382.72
2023-03-12T19:45:57.417Z,97382.88
2023-03-12T19:48:24.151Z,97389.25
2023-03-12T19:50:50.727Z,97389.03
2023-03-12T19:53:17.324Z,97390.59
2023-03-12T19:55:43.901Z,97387.09
2023-03-12T19:58:10.477Z,97386.31
2023-03-12T20:00:37.080Z,97391.34
2023-03-12T20:03:03.785Z,97402.16
2023-03-12T20:05:30.461Z,97398.84
2023-03-12T20:07:57.281Z,97405.25
2023-03-12T20:10:23.859Z,97408.63
2023-03-12T20:12:50.475Z,97400.69
2023-03-12T20:15:17.094Z,97412.47
2023-03-12T20:17:43.652Z,97414.47
2023-03-12T20:20:10.246Z,97398.09
2023-03-12T20:22:36.834Z,97404.31
2023-03-12T20:25:03.473Z,97415.09
2023-03-12T20:27:30.210Z,97421.06
2023-03-12T20:29:56.804Z,97417.19
2023-03-12T20:32:23.454Z,97416.34
2023-03-12T20:34:50.085Z,97414.94
2023-03-12T20:37:16.751Z,97408.72
2023-03-12T20:39:43.354Z,97422.47
2023-03-12T20:42:09.935Z,97417.56
2023-03-12T20:44:36.651Z,97413.34
2023-03-12T20:47:03.272Z,97405.00
2023-03-12T20:49:29.893Z,97406.63
2023-03-12T20:51:56.480Z,97389.69
2023-03-12T20:54:23.071Z,97404.63
2023-03-12T20:56:49.853Z,97397.63
2023-03-12T20:59:16.657Z,97397.66
2023-03-12T21:01:43.350Z,97410.38
2023-03-12T21:04:10.064Z,97420.72
2023-03-12T21:06:36.903Z,97415.16
2023-03-12T21:09:03.504Z,97419.88
2023-03-12T21:11:30.141Z,97425.41
2023-03-12T21:13:56.728Z,97429.84
2023-03-12T21:16:23.381Z,97426.91
2023-03-12T21:18:49.985Z,97422.19
2023-03-12T21:21:16.567Z,97434.28
2023-03-12T21:23:43.210Z,97441.78
2023-03-12T21:26:09.922Z,97422.63
2023-03-12T21:28:36.529Z,97437.97
2023-03-12T21:31:03.217Z,97426.91
2023-03-12T21:33:29.804Z,97420.31
2023-03-12T21:35:56.472Z,97415.09
2023-03-12T21:38:23.117Z,97420.63
2023-03-12T21:40:49.702Z,97429.47
2023-03-12T21:43:16.430Z,97433.34
2023-03-12T21:45:42.989Z,97441.31
2023-03-12T21:48:09.585Z,97423.72
2023-03-12T21:50:36.141Z,97420.47
2023-03-12T21:53:05.078Z,97414.56
2023-03-12T21:55:38.255Z,97424.66
2023-03-12T21:58:04.863Z,97441.22
2023-03-12T22:00:31.420Z,97429.72
2023-03-12T22:02:58.156Z,97429.44
2023-03-12T22:05:24.726Z,97429.88
2023-03-12T22:07:51.281Z,97425.31
2023-03-12T22:10:17.877Z,97427.06
2023-03-12T22:12:44.476Z,97430.41
2023-03-12T22:15:11.061Z,97435.84
2023-03-12T22:17:37.626Z,97437.06
2023-03-12T22:20:04.213Z,97440.13
2023-03-12T22:22:31.002Z,97452.53
2023-03-12T22:24:57.570Z,97440.53
2023-03-12T22:27:24.150Z,97440.50
2023-03-12T22:29:50.737Z,97445.00
2023-03-12T22:32:17.458Z,97451.19
2023-03-12T22:34:44.077Z,97447.47
2023-03-12T22:37:10.654Z,97456.50
2023-03-12T22:39:37.236Z,97454.31
2023-03-12T22:42:03.827Z,97460.28
2023-03-12T22:44:30.385Z,97455.88
2023-03-12T22:46:58.068Z,97453.63
2023-03-12T22:49:24.773Z,97460.22
2023-03-12T22:51:51.365Z,97464.06
2023-03-12T22:54:17.974Z,97466.53
2023-03-12T22:56:44.620Z,97462.63
2023-03-12T22:59:11.202Z,97466.28
2023-03-12T23:01:37.867Z,97462.44
2023-03-12T23:04:04.446Z,97458.59
2023-03-12T23:06:31.299Z,97448.78
2023-03-12T23:08:57.953Z,97460.38
2023-03-12T23:11:24.579Z,97456.13
2023-03-12T23:13:51.186Z,97455.34
2023-03-12T23:16:17.850Z,97457.38
2023-03-12T23:18:44.495Z,97454.31
2023-03-12T23:21:11.177Z,97455.84
2023-03-12T23:23:37.747Z,97450.44
2023-03-12T23:26:04.359Z,97451.06
2023-03-12T23:28:30.945Z,97453.75
2023-03-12T23:30:57.620Z,97452.84
2023-03-12T23:33:25.215Z,97451.69
2023-03-12T23:35:51.823Z,97452.88
2023-03-12T23:38:18.640Z,97445.63
2023-03-12T23:40:45.228Z,97453.69
2023-03-12T23:43:12.092Z,97450.44
2023-03-12T23:45:38.676Z,97451.38
2023-03-12T23:48:05.439Z,97448.22
2023-03-12T23:50:32.017Z,97447.53
2023-03-12T23:52:58.598Z,97439.03
2023-03-12T23:55:25.149Z,97435.16
2023-03-12T23:57:51.728Z,97440.59
